Shawnee, Ohio
Current Conditions -  °F | °C
As of 6:53 PM on Saturday 22 Nov 2014 (Local Time) from KLHQ Reporting Station
Overcast Overcast  
Wind Chill: 43°   Ceiling: 10000
Heat Index: 46°   Visibility: 10mi
Dew Point: 33°   Wind: 6mph
Humidity: 61%   Direction: 150°SSE
Pressure: 30.11"   Gusts: NA
Location:  39.6°N, 82.21°W
Report Text: KLHQ 222353Z AUTO 15005KT 10SM OVC100 08/01 A3011 RMK AO2 SLP201 T00780006 10111 20067 56009
Loading
Personal Weather Stations






























Interactive Weather Map New forecast layout! Learn more

10-Day Weather Forecast

Advertisements
Track Severe Weather on mobile